createdAt,value
2023-06-05T00:01:52.255Z,62.90
2023-06-05T00:04:20.230Z,62.80
2023-06-05T00:06:48.066Z,62.60
2023-06-05T00:09:15.635Z,63.00
2023-06-05T00:11:43.185Z,63.00
2023-06-05T00:14:10.847Z,62.80
2023-06-05T00:16:38.607Z,62.60
2023-06-05T00:19:06.523Z,62.60
2023-06-05T00:21:34.299Z,62.60
2023-06-05T00:24:01.982Z,63.00
2023-06-05T00:26:29.608Z,62.60
2023-06-05T00:28:57.275Z,62.50
2023-06-05T00:31:25.272Z,62.70
2023-06-05T00:33:53.079Z,62.80
2023-06-05T00:36:24.019Z,62.40
2023-06-05T00:38:52.160Z,62.70
2023-06-05T00:41:19.812Z,62.50
2023-06-05T00:43:47.389Z,62.50
2023-06-05T00:46:16.444Z,62.50
2023-06-05T00:48:44.997Z,62.70
2023-06-05T00:51:15.925Z,62.40
2023-06-05T00:53:46.126Z,62.30
2023-06-05T00:56:13.908Z,62.30
2023-06-05T00:58:41.773Z,62.30
2023-06-05T01:01:12.621Z,62.30
2023-06-05T01:03:41.101Z,62.30
2023-06-05T01:06:09.037Z,62.30
2023-06-05T01:08:40.879Z,62.40
2023-06-05T01:11:16.242Z,62.30
2023-06-05T01:13:59.257Z,62.30
2023-06-05T01:16:32.597Z,62.30
2023-06-05T01:19:03.673Z,62.10
2023-06-05T01:21:33.510Z,62.20
2023-06-05T01:24:01.308Z,62.20
2023-06-05T01:26:44.446Z,62.50
2023-06-05T01:29:17.328Z,62.30
2023-06-05T01:31:47.736Z,62.30
2023-06-05T01:34:21.238Z,62.10
2023-06-05T01:36:49.580Z,62.20
2023-06-05T01:39:19.784Z,62.20
2023-06-05T01:41:49.207Z,62.30
2023-06-05T01:44:19.407Z,62.20
2023-06-05T01:46:47.808Z,62.20
2023-06-05T01:49:15.697Z,62.40
2023-06-05T01:51:43.253Z,62.20
2023-06-05T01:54:10.908Z,62.00
2023-06-05T01:56:38.462Z,62.20
2023-06-05T01:59:08.617Z,62.20
2023-06-05T02:01:36.395Z,62.00
2023-06-05T02:04:07.384Z,62.10
2023-06-05T02:06:45.523Z,62.50
2023-06-05T02:09:15.783Z,61.90
2023-06-05T02:11:44.281Z,62.10
2023-06-05T02:14:14.611Z,62.30
2023-06-05T02:16:43.573Z,62.30
2023-06-05T02:19:12.331Z,62.50
2023-06-05T02:21:39.934Z,62.20
2023-06-05T02:24:08.459Z,62.20
2023-06-05T02:26:36.036Z,62.40
2023-06-05T02:29:03.633Z,62.50
2023-06-05T02:31:31.739Z,62.70
2023-06-05T02:33:59.378Z,62.30
2023-06-05T02:36:26.963Z,62.30
2023-06-05T02:38:57.736Z,62.40
2023-06-05T02:41:25.392Z,62.70
2023-06-05T02:43:52.937Z,62.30
2023-06-05T02:46:20.760Z,62.30
2023-06-05T02:48:48.541Z,62.30
2023-06-05T02:51:16.204Z,62.10
2023-06-05T02:53:43.796Z,62.20
2023-06-05T02:56:11.608Z,62.40
2023-06-05T02:58:41.028Z,63.10
2023-06-05T03:01:10.112Z,62.40
2023-06-05T03:03:38.156Z,62.40
2023-06-05T03:06:06.155Z,62.40
2023-06-05T03:08:34.600Z,62.40
2023-06-05T03:11:03.210Z,62.20
2023-06-05T03:13:32.027Z,62.50
2023-06-05T03:16:02.641Z,62.50
2023-06-05T03:18:30.919Z,62.20
2023-06-05T03:21:00.228Z,62.50
2023-06-05T03:23:29.135Z,62.80
2023-06-05T03:25:57.588Z,62.50
2023-06-05T03:28:26.189Z,62.20
2023-06-05T03:30:53.747Z,62.30
2023-06-05T03:33:25.348Z,62.30
2023-06-05T03:35:53.940Z,62.60
2023-06-05T03:38:21.745Z,62.50
2023-06-05T03:40:49.392Z,62.70
2023-06-05T03:43:16.992Z,62.40
2023-06-05T03:45:44.549Z,62.60
2023-06-05T03:48:12.643Z,62.60
2023-06-05T03:50:40.541Z,62.70
2023-06-05T03:53:10.176Z,62.80
2023-06-05T03:55:47.593Z,62.80
2023-06-05T03:58:16.729Z,62.70
2023-06-05T04:00:45.965Z,62.70
2023-06-05T04:03:14.396Z,62.90
2023-06-05T04:05:42.744Z,62.80
2023-06-05T04:08:11.115Z,63.30
2023-06-05T04:10:39.898Z,63.00
2023-06-05T04:13:07.787Z,63.20
2023-06-05T04:15:36.336Z,63.40
2023-06-05T04:18:04.225Z,63.50
2023-06-05T04:20:31.779Z,63.60
2023-06-05T04:22:59.373Z,63.40
2023-06-05T04:25:30.488Z,63.70
2023-06-05T04:27:58.533Z,63.80
2023-06-05T04:30:26.487Z,63.90
2023-06-05T04:32:56.953Z,63.90
2023-06-05T04:35:24.763Z,64.00
2023-06-05T04:37:52.343Z,64.10
2023-06-05T04:40:21.188Z,64.20
2023-06-05T04:42:48.719Z,64.40
2023-06-05T04:45:17.965Z,64.40
2023-06-05T04:47:45.781Z,64.70
2023-06-05T04:50:27.729Z,64.80
2023-06-05T04:52:55.327Z,64.80
2023-06-05T04:55:23.278Z,64.80
2023-06-05T04:57:50.900Z,64.90
2023-06-05T05:00:18.774Z,65.30
2023-06-05T05:02:46.749Z,65.30
2023-06-05T05:05:14.652Z,65.70
2023-06-05T05:07:44.025Z,65.80
2023-06-05T05:10:12.660Z,65.60
2023-06-05T05:12:40.318Z,65.80
2023-06-05T05:15:08.680Z,65.90
2023-06-05T05:17:36.353Z,66.00
2023-06-05T05:20:05.417Z,66.20
2023-06-05T05:22:32.962Z,66.10
2023-06-05T05:25:00.841Z,66.20
2023-06-05T05:27:28.455Z,66.30
2023-06-05T05:29:56.232Z,66.20
2023-06-05T05:32:23.985Z,66.30
2023-06-05T05:34:52.223Z,66.80
2023-06-05T05:37:19.756Z,66.60
2023-06-05T05:39:47.312Z,67.40
2023-06-05T05:42:14.976Z,66.70
2023-06-05T05:44:45.460Z,66.90
2023-06-05T05:47:13.133Z,67.10
2023-06-05T05:49:40.697Z,67.10
2023-06-05T05:52:08.243Z,67.50
2023-06-05T05:54:35.806Z,67.40
2023-06-05T05:57:03.978Z,67.40
2023-06-05T05:59:31.611Z,67.50
2023-06-05T06:02:00.733Z,67.50
2023-06-05T06:04:28.507Z,67.50
2023-06-05T06:06:57.641Z,68.10
2023-06-05T06:09:26.386Z,68.00
2023-06-05T06:11:56.827Z,68.00
2023-06-05T06:14:24.901Z,67.90
2023-06-05T06:16:52.711Z,68.00
2023-06-05T06:19:24.685Z,67.90
2023-06-05T06:21:53.136Z,68.00
2023-06-05T06:24:24.008Z,67.90
2023-06-05T06:26:53.745Z,67.70
2023-06-05T06:29:24.923Z,67.90
2023-06-05T06:31:52.494Z,68.00
2023-06-05T06:34:20.262Z,68.80
2023-06-05T06:36:47.930Z,68.00
2023-06-05T06:39:15.520Z,68.50
2023-06-05T06:41:43.253Z,68.70
2023-06-05T06:44:10.854Z,68.60
2023-06-05T06:46:38.478Z,68.40
2023-06-05T06:49:07.761Z,68.70
2023-06-05T06:51:35.462Z,68.70
2023-06-05T06:54:03.031Z,69.90
2023-06-05T06:56:30.693Z,68.80
2023-06-05T06:58:58.324Z,68.90
2023-06-05T07:01:26.475Z,69.70
2023-06-05T07:03:54.111Z,69.20
2023-06-05T07:06:23.175Z,68.90
2023-06-05T07:08:51.839Z,68.80
2023-06-05T07:11:19.427Z,68.80
2023-06-05T07:13:47.108Z,68.80
2023-06-05T07:16:14.741Z,69.70
2023-06-05T07:18:42.476Z,69.20
2023-06-05T07:21:10.501Z,69.10
2023-06-05T07:23:38.250Z,69.00
2023-06-05T07:26:05.904Z,69.20
2023-06-05T07:28:33.525Z,69.40
2023-06-05T07:31:04.860Z,69.30
2023-06-05T07:33:32.602Z,69.30
2023-06-05T07:36:03.333Z,69.40
2023-06-05T07:38:31.340Z,69.40
2023-06-05T07:40:59.799Z,69.50
2023-06-05T07:43:27.502Z,69.40
2023-06-05T07:45:55.935Z,69.60
2023-06-05T07:48:23.649Z,69.80
2023-06-05T07:50:51.325Z,72.40
2023-06-05T07:53:18.917Z,73.40
2023-06-05T07:55:46.683Z,72.70
2023-06-05T07:58:15.128Z,73.40
2023-06-05T08:00:49.153Z,74.20
2023-06-05T08:03:21.722Z,73.50
2023-06-05T08:05:51.295Z,73.70
2023-06-05T08:08:19.733Z,74.80
2023-06-05T08:10:48.985Z,74.70
2023-06-05T08:13:17.682Z,73.60
2023-06-05T08:15:45.318Z,73.50
2023-06-05T08:18:13.071Z,73.10
2023-06-05T08:20:41.481Z,72.90
2023-06-05T08:23:09.246Z,72.60
2023-06-05T08:25:37.443Z,72.60
2023-06-05T08:28:05.031Z,72.20
2023-06-05T08:30:32.926Z,71.80
2023-06-05T08:33:00.475Z,71.90
2023-06-05T08:35:28.113Z,71.80
2023-06-05T08:37:55.908Z,71.70
2023-06-05T08:40:27.075Z,71.70
2023-06-05T08:42:54.634Z,71.60
2023-06-05T08:45:22.493Z,71.70
2023-06-05T08:47:53.247Z,71.60
2023-06-05T08:50:21.028Z,71.70
2023-06-05T08:52:51.159Z,71.80
2023-06-05T08:55:19.083Z,71.90
2023-06-05T08:57:46.792Z,72.00
2023-06-05T09:00:16.049Z,71.90
2023-06-05T09:02:49.740Z,71.80
2023-06-05T09:05:18.276Z,71.80
2023-06-05T09:07:46.038Z,71.80
2023-06-05T09:10:27.971Z,72.10
2023-06-05T09:12:59.800Z,72.20
2023-06-05T09:15:35.485Z,72.00
2023-06-05T09:18:10.209Z,71.90
2023-06-05T09:20:40.460Z,71.70
2023-06-05T09:23:29.076Z,71.80
2023-06-05T09:26:01.838Z,71.90
2023-06-05T09:28:29.483Z,72.10
2023-06-05T09:31:04.167Z,72.10
2023-06-05T09:33:35.519Z,72.00
2023-06-05T09:36:14.254Z,72.30
2023-06-05T09:38:43.053Z,72.60
2023-06-05T09:41:20.534Z,72.40
2023-06-05T09:43:51.981Z,72.30
2023-06-05T09:46:19.750Z,72.20
2023-06-05T09:49:00.600Z,72.20
2023-06-05T09:51:28.501Z,72.10
2023-06-05T09:53:59.149Z,72.20
2023-06-05T09:56:28.040Z,72.20
2023-06-05T09:58:55.720Z,72.20
2023-06-05T10:01:29.258Z,72.20
2023-06-05T10:04:01.725Z,72.10
2023-06-05T10:06:30.005Z,71.90
2023-06-05T10:08:58.317Z,71.80
2023-06-05T10:11:29.312Z,71.90
2023-06-05T10:14:00.809Z,72.00
2023-06-05T10:16:32.479Z,72.00
2023-06-05T10:19:01.329Z,71.80
2023-06-05T10:21:30.603Z,71.80
2023-06-05T10:24:15.517Z,71.80
2023-06-05T10:27:17.241Z,71.70
2023-06-05T10:29:56.951Z,71.80
2023-06-05T10:32:24.786Z,71.80
2023-06-05T10:35:29.494Z,71.80
2023-06-05T10:38:28.050Z,71.80
2023-06-05T10:40:57.643Z,71.70
2023-06-05T10:43:30.406Z,71.80
2023-06-05T10:49:09.118Z,71.90
2023-06-05T10:51:51.145Z,72.10
2023-06-05T10:54:24.962Z,72.00
2023-06-05T10:56:52.996Z,72.00
2023-06-05T10:59:23.124Z,71.80
2023-06-05T11:02:18.157Z,71.60
2023-06-05T11:04:49.182Z,71.40
2023-06-05T11:07:21.789Z,71.50
2023-06-05T11:10:04.604Z,71.40
2023-06-05T11:12:41.560Z,71.30
2023-06-05T11:15:13.554Z,71.50
2023-06-05T11:17:44.818Z,71.50
2023-06-05T11:20:50.635Z,71.50
2023-06-05T11:23:18.316Z,71.60
2023-06-05T11:25:46.155Z,71.40
2023-06-05T11:28:13.989Z,69.70
2023-06-05T11:30:48.964Z,69.40
2023-06-05T11:33:20.754Z,69.00
2023-06-05T11:35:50.370Z,69.20
2023-06-05T11:38:22.060Z,69.50
2023-06-05T11:40:55.218Z,69.70
2023-06-05T11:43:23.427Z,69.60
2023-06-05T11:45:59.081Z,69.80
2023-06-05T11:48:27.379Z,69.80
2023-06-05T11:50:58.887Z,69.80
2023-06-05T11:53:28.009Z,69.80
2023-06-05T11:56:08.982Z,69.80
2023-06-05T11:58:39.616Z,69.90
2023-06-05T12:01:19.047Z,70.00
2023-06-05T12:03:48.248Z,70.00
2023-06-05T12:06:19.035Z,70.20
2023-06-05T12:08:46.748Z,70.10
2023-06-05T12:11:29.477Z,69.90
2023-06-05T12:13:58.213Z,70.00
2023-06-05T12:16:34.320Z,70.00
2023-06-05T12:19:15.808Z,70.00
2023-06-05T12:21:48.625Z,69.80
2023-06-05T12:24:16.652Z,69.80
2023-06-05T12:26:57.465Z,69.60
2023-06-05T12:29:41.741Z,68.70
2023-06-05T12:32:24.302Z,68.50
2023-06-05T12:37:33.502Z,66.80
2023-06-05T12:40:02.957Z,67.20
2023-06-05T12:42:38.220Z,66.30
2023-06-05T12:45:07.805Z,67.00
2023-06-05T12:47:37.156Z,67.50
2023-06-05T12:50:06.882Z,67.70
2023-06-05T12:52:34.644Z,67.90
2023-06-05T12:55:02.465Z,67.90
2023-06-05T12:57:30.105Z,68.00
2023-06-05T12:59:57.810Z,68.00
2023-06-05T13:02:26.001Z,68.00
2023-06-05T13:04:53.857Z,68.00
2023-06-05T13:07:23.091Z,67.90
2023-06-05T13:09:53.417Z,68.00
2023-06-05T13:12:24.271Z,68.00
2023-06-05T13:14:51.879Z,67.80
2023-06-05T13:17:19.478Z,67.90
2023-06-05T13:19:47.119Z,67.90
2023-06-05T13:22:20.152Z,67.80
2023-06-05T13:24:49.981Z,67.80
2023-06-05T13:27:18.167Z,67.90
2023-06-05T13:29:45.972Z,67.80
2023-06-05T13:32:13.601Z,67.80
2023-06-05T13:34:41.985Z,67.70
2023-06-05T13:37:14.472Z,67.80
2023-06-05T13:39:42.694Z,67.80
2023-06-05T13:42:10.462Z,67.70
2023-06-05T13:44:38.014Z,67.80
2023-06-05T13:47:06.202Z,67.90
2023-06-05T13:49:33.943Z,67.80
2023-06-05T13:52:01.544Z,67.80
2023-06-05T13:54:29.112Z,67.70
2023-06-05T13:56:56.900Z,67.70
2023-06-05T13:59:24.595Z,67.60
2023-06-05T14:01:55.147Z,67.60
2023-06-05T14:04:22.926Z,67.60
2023-06-05T14:06:50.453Z,67.60
2023-06-05T14:09:18.084Z,67.50
2023-06-05T14:11:46.222Z,67.50
2023-06-05T14:14:14.023Z,67.60
2023-06-05T14:16:41.834Z,67.60
2023-06-05T14:19:09.547Z,67.80
2023-06-05T14:21:39.015Z,67.70
2023-06-05T14:24:07.090Z,67.70
2023-06-05T14:26:34.852Z,67.70
2023-06-05T14:29:02.473Z,67.70
2023-06-05T14:31:30.189Z,67.80
2023-06-05T14:33:58.201Z,67.80
2023-06-05T14:36:26.897Z,67.70
2023-06-05T14:38:56.949Z,67.70
2023-06-05T14:41:25.272Z,67.80
2023-06-05T14:43:56.274Z,67.70
2023-06-05T14:46:24.786Z,67.10
2023-06-05T14:48:52.647Z,67.40
2023-06-05T14:51:20.241Z,67.00
2023-06-05T14:53:48.637Z,67.20
2023-06-05T14:56:16.229Z,67.50
2023-06-05T14:58:43.923Z,67.40
2023-06-05T15:01:11.817Z,67.20
2023-06-05T15:03:39.620Z,67.40
2023-06-05T15:06:20.562Z,67.50
2023-06-05T15:08:49.927Z,66.40
2023-06-05T15:11:18.039Z,66.60
2023-06-05T15:13:46.054Z,67.20
2023-06-05T15:16:13.650Z,67.20
2023-06-05T15:18:41.398Z,67.40
2023-06-05T15:21:09.183Z,67.60
2023-06-05T15:23:37.006Z,67.10
2023-06-05T15:26:04.619Z,67.00
2023-06-05T15:28:32.219Z,67.30
2023-06-05T15:30:59.864Z,67.50
2023-06-05T15:33:27.519Z,67.50
2023-06-05T15:35:55.240Z,67.80
2023-06-05T15:38:22.849Z,67.50
2023-06-05T15:40:50.501Z,67.60
2023-06-05T15:43:18.130Z,67.80
2023-06-05T15:45:46.455Z,68.10
2023-06-05T15:48:14.025Z,67.80
2023-06-05T15:50:41.660Z,68.20
2023-06-05T15:53:09.357Z,68.10
2023-06-05T15:55:39.026Z,67.80
2023-06-05T15:58:07.356Z,68.00
2023-06-05T16:00:35.171Z,67.80
2023-06-05T16:03:03.171Z,68.10
2023-06-05T16:05:31.225Z,68.40
2023-06-05T16:08:00.350Z,68.50
2023-06-05T16:10:28.096Z,68.50
2023-06-05T16:12:55.705Z,68.40
2023-06-05T16:15:23.875Z,68.50
2023-06-05T16:17:52.629Z,68.60
2023-06-05T16:20:20.998Z,68.60
2023-06-05T16:22:48.569Z,66.50
2023-06-05T16:25:16.295Z,65.70
2023-06-05T16:27:43.895Z,65.50
2023-06-05T16:30:11.714Z,65.70
2023-06-05T16:32:39.270Z,65.90
2023-06-05T16:35:07.608Z,65.20
2023-06-05T16:37:36.382Z,65.80
2023-06-05T16:40:04.251Z,65.60
2023-06-05T16:42:31.868Z,66.00
2023-06-05T16:44:59.785Z,65.40
2023-06-05T16:47:27.455Z,66.10
2023-06-05T16:49:55.087Z,66.00
2023-06-05T16:52:25.321Z,65.80
2023-06-05T16:54:54.792Z,66.00
2023-06-05T16:57:22.361Z,65.70
2023-06-05T16:59:50.067Z,65.00
2023-06-05T17:02:17.954Z,66.10
2023-06-05T17:04:46.671Z,65.50
2023-06-05T17:07:14.647Z,65.80
2023-06-05T17:09:43.125Z,65.70
2023-06-05T17:12:10.803Z,65.50
2023-06-05T17:14:41.840Z,65.70
2023-06-05T17:17:09.442Z,65.70
2023-06-05T17:19:37.116Z,66.60
2023-06-05T17:22:04.970Z,67.00
2023-06-05T17:24:32.681Z,65.90
2023-06-05T17:27:01.353Z,66.70
2023-06-05T17:29:30.706Z,67.20
2023-06-05T17:32:01.519Z,67.30
2023-06-05T17:34:29.775Z,67.30
2023-06-05T17:36:57.388Z,67.40
2023-06-05T17:39:25.326Z,67.30
2023-06-05T17:41:52.964Z,67.50
2023-06-05T17:44:22.093Z,67.50
2023-06-05T17:46:49.868Z,67.60
2023-06-05T17:49:17.631Z,67.60
2023-06-05T17:51:48.573Z,67.60
2023-06-05T17:54:16.581Z,67.50
2023-06-05T17:56:44.749Z,67.70
2023-06-05T17:59:14.465Z,67.70
2023-06-05T18:01:42.747Z,67.70
2023-06-05T18:04:14.705Z,67.70
2023-06-05T18:06:42.873Z,67.50
2023-06-05T18:09:10.723Z,67.40
2023-06-05T18:11:38.603Z,67.50
2023-06-05T18:14:06.808Z,67.50
2023-06-05T18:16:34.737Z,67.40
2023-06-05T18:19:02.661Z,67.40
2023-06-05T18:21:31.405Z,67.30
2023-06-05T18:23:59.365Z,67.30
2023-06-05T18:26:27.673Z,67.20
2023-06-05T18:28:55.559Z,67.50
2023-06-05T18:31:23.658Z,67.50
2023-06-05T18:33:52.649Z,67.50
2023-06-05T18:36:20.973Z,67.60
2023-06-05T18:38:50.492Z,67.50
2023-06-05T18:41:18.392Z,67.50
2023-06-05T18:43:46.246Z,67.50
2023-06-05T18:46:16.859Z,67.50
2023-06-05T18:48:45.963Z,67.50
2023-06-05T18:51:13.842Z,67.50
2023-06-05T18:53:42.714Z,67.40
2023-06-05T18:56:10.363Z,67.40
2023-06-05T18:58:38.267Z,68.00
2023-06-05T19:01:06.053Z,67.40
2023-06-05T19:03:33.910Z,67.30
2023-06-05T19:06:01.558Z,67.40
2023-06-05T19:08:29.203Z,67.30
2023-06-05T19:10:56.870Z,67.40
2023-06-05T19:13:24.517Z,67.30
2023-06-05T19:15:52.560Z,67.90
2023-06-05T19:18:20.385Z,67.30
2023-06-05T19:20:48.096Z,67.10
2023-06-05T19:23:16.035Z,67.00
2023-06-05T19:25:43.552Z,67.10
2023-06-05T19:28:11.157Z,66.90
2023-06-05T19:30:38.798Z,66.80
2023-06-05T19:33:06.876Z,66.80
2023-06-05T19:35:34.891Z,66.70
2023-06-05T19:38:02.720Z,66.70
2023-06-05T19:40:30.327Z,66.70
2023-06-05T19:42:57.950Z,66.60
2023-06-05T19:45:25.655Z,66.70
2023-06-05T19:47:53.272Z,66.70
2023-06-05T19:50:22.217Z,66.70
2023-06-05T19:52:49.884Z,66.80
2023-06-05T19:55:19.403Z,66.60
2023-06-05T19:57:48.133Z,66.60
2023-06-05T20:00:16.450Z,66.50
2023-06-05T20:02:44.096Z,66.60
2023-06-05T20:05:11.765Z,66.60
2023-06-05T20:07:42.338Z,66.30
2023-06-05T20:10:10.363Z,66.40
2023-06-05T20:12:38.030Z,66.30
2023-06-05T20:15:06.462Z,66.40
2023-06-05T20:17:37.058Z,66.30
2023-06-05T20:20:05.454Z,66.20
2023-06-05T20:22:33.213Z,66.40
2023-06-05T20:25:03.073Z,66.20
2023-06-05T20:27:30.925Z,66.20
2023-06-05T20:29:58.709Z,66.20
2023-06-05T20:32:26.432Z,66.20
2023-06-05T20:34:54.025Z,66.10
2023-06-05T20:37:31.565Z,66.10
2023-06-05T20:40:06.468Z,66.10
2023-06-05T20:42:35.561Z,65.90
2023-06-05T20:45:04.970Z,65.90
2023-06-05T20:47:33.709Z,66.10
2023-06-05T20:50:02.560Z,66.00
2023-06-05T20:52:30.376Z,65.90
2023-06-05T20:54:58.840Z,65.90
2023-06-05T20:57:29.496Z,65.80
2023-06-05T21:00:06.951Z,65.80
2023-06-05T21:02:37.923Z,65.70
2023-06-05T21:05:06.863Z,65.70
2023-06-05T21:07:34.433Z,66.40
2023-06-05T21:10:02.234Z,65.70
2023-06-05T21:12:29.852Z,65.60
2023-06-05T21:14:57.488Z,65.70
2023-06-05T21:17:25.179Z,65.50
2023-06-05T21:19:53.549Z,65.60
2023-06-05T21:22:23.613Z,65.60
2023-06-05T21:24:52.469Z,65.60
2023-06-05T21:27:20.156Z,65.50
2023-06-05T21:29:47.754Z,65.60
2023-06-05T21:32:15.378Z,65.50
2023-06-05T21:34:44.969Z,65.50
2023-06-05T21:37:17.120Z,65.50
2023-06-05T21:39:47.835Z,65.30
2023-06-05T21:42:16.803Z,65.30
2023-06-05T21:44:45.917Z,65.40
2023-06-05T21:47:14.677Z,65.50
2023-06-05T21:49:42.958Z,65.40
2023-06-05T21:52:13.759Z,65.30
2023-06-05T21:54:44.103Z,65.40
2023-06-05T21:57:12.640Z,65.20
2023-06-05T21:59:41.389Z,65.20
2023-06-05T22:02:09.344Z,65.30
2023-06-05T22:04:37.026Z,65.20
2023-06-05T22:07:07.645Z,65.20
2023-06-05T22:09:35.690Z,65.20
2023-06-05T22:12:03.697Z,65.20
2023-06-05T22:14:31.540Z,65.20
2023-06-05T22:17:00.625Z,65.10
2023-06-05T22:19:29.122Z,65.00
2023-06-05T22:21:58.273Z,65.00
2023-06-05T22:24:26.813Z,65.10
2023-06-05T22:26:54.335Z,65.20
2023-06-05T22:29:21.928Z,65.00
2023-06-05T22:31:50.601Z,65.00
2023-06-05T22:34:18.710Z,65.00
2023-06-05T22:36:46.325Z,65.00
2023-06-05T22:39:13.881Z,64.80
2023-06-05T22:41:42.227Z,64.90
2023-06-05T22:44:09.858Z,64.90
2023-06-05T22:46:37.450Z,65.00
2023-06-05T22:49:05.071Z,64.70
2023-06-05T22:51:33.948Z,64.90
2023-06-05T22:54:01.778Z,64.90
2023-06-05T22:56:35.245Z,64.80
2023-06-05T22:59:02.835Z,65.00
2023-06-05T23:01:30.672Z,64.80
2023-06-05T23:03:58.337Z,64.60
2023-06-05T23:06:25.953Z,65.50
2023-06-05T23:08:53.522Z,64.70
2023-06-05T23:11:21.111Z,64.70
2023-06-05T23:13:48.856Z,64.60
2023-06-05T23:16:16.906Z,64.90
2023-06-05T23:18:44.627Z,64.60
2023-06-05T23:21:12.639Z,64.60
2023-06-05T23:23:40.315Z,64.50
2023-06-05T23:26:08.858Z,64.70
2023-06-05T23:28:36.414Z,64.20
2023-06-05T23:31:04.009Z,64.30
2023-06-05T23:33:31.566Z,64.50
2023-06-05T23:35:59.137Z,64.50
2023-06-05T23:38:26.843Z,64.60
2023-06-05T23:40:54.444Z,64.30
2023-06-05T23:43:21.988Z,64.20
2023-06-05T23:45:49.616Z,64.20
2023-06-05T23:48:17.300Z,64.50
2023-06-05T23:50:45.214Z,64.30
2023-06-05T23:53:13.368Z,64.30
2023-06-05T23:55:40.933Z,64.40
2023-06-05T23:58:08.509Z,64.00
